sensor_id;sensor_type;location;lat;lon;timestamp;P1;durP1;ratioP1;P2;durP2;ratioP2
40983;SDS011;26714;51.332;12.406;2024-01-27T00:01:05;6.20;;;1.38;;
40983;SDS011;26714;51.332;12.406;2024-01-27T00:03:33;8.27;;;1.42;;
40983;SDS011;26714;51.332;12.406;2024-01-27T00:06:11;8.38;;;1.20;;
40983;SDS011;26714;51.332;12.406;2024-01-27T00:09:03;5.07;;;1.20;;
40983;SDS011;26714;51.332;12.406;2024-01-27T00:11:30;11.68;;;1.63;;
40983;SDS011;26714;51.332;12.406;2024-01-27T00:16:26;10.82;;;1.40;;
40983;SDS011;26714;51.332;12.406;2024-01-27T00:18:54;10.60;;;1.77;;
40983;SDS011;26714;51.332;12.406;2024-01-27T00:21:20;7.15;;;1.23;;
40983;SDS011;26714;51.332;12.406;2024-01-27T00:23:48;8.75;;;1.33;;
40983;SDS011;26714;51.332;12.406;2024-01-27T00:26:18;6.65;;;1.15;;
40983;SDS011;26714;51.332;12.406;2024-01-27T00:28:51;6.50;;;1.33;;
40983;SDS011;26714;51.332;12.406;2024-01-27T00:31:22;5.75;;;1.13;;
40983;SDS011;26714;51.332;12.406;2024-01-27T00:33:48;4.75;;;1.33;;
40983;SDS011;26714;51.332;12.406;2024-01-27T00:36:17;8.82;;;1.60;;
40983;SDS011;26714;51.332;12.406;2024-01-27T00:38:45;9.50;;;1.17;;
40983;SDS011;26714;51.332;12.406;2024-01-27T00:41:17;6.70;;;1.23;;
40983;SDS011;26714;51.332;12.406;2024-01-27T00:43:43;4.15;;;1.00;;
40983;SDS011;26714;51.332;12.406;2024-01-27T00:46:09;10.20;;;1.58;;
40983;SDS011;26714;51.332;12.406;2024-01-27T00:48:36;5.90;;;1.15;;
40983;SDS011;26714;51.332;12.406;2024-01-27T00:51:03;12.13;;;1.50;;
40983;SDS011;26714;51.332;12.406;2024-01-27T00:53:30;13.32;;;1.77;;
40983;SDS011;26714;51.332;12.406;2024-01-27T00:55:58;8.85;;;1.58;;
40983;SDS011;26714;51.332;12.406;2024-01-27T00:58:24;7.70;;;1.40;;
40983;SDS011;26714;51.332;12.406;2024-01-27T01:01:19;8.50;;;1.33;;
40983;SDS011;26714;51.332;12.406;2024-01-27T01:05:13;10.23;;;1.60;;
40983;SDS011;26714;51.332;12.406;2024-01-27T01:09:34;23.38;;;2.95;;
40983;SDS011;26714;51.332;12.406;2024-01-27T01:13:25;9.45;;;1.40;;
40983;SDS011;26714;51.332;12.406;2024-01-27T01:15:51;11.45;;;1.55;;
40983;SDS011;26714;51.332;12.406;2024-01-27T01:18:24;12.88;;;1.42;;
40983;SDS011;26714;51.332;12.406;2024-01-27T01:20:50;13.18;;;1.15;;
40983;SDS011;26714;51.332;12.406;2024-01-27T01:23:18;15.30;;;1.67;;
40983;SDS011;26714;51.332;12.406;2024-01-27T01:25:44;10.57;;;1.77;;
40983;SDS011;26714;51.332;12.406;2024-01-27T01:28:10;9.57;;;1.50;;
40983;SDS011;26714;51.332;12.406;2024-01-27T01:30:40;12.18;;;1.58;;
40983;SDS011;26714;51.332;12.406;2024-01-27T01:36:25;9.57;;;1.65;;
40983;SDS011;26714;51.332;12.406;2024-01-27T01:38:58;9.77;;;1.17;;
40983;SDS011;26714;51.332;12.406;2024-01-27T01:41:26;13.90;;;1.73;;
40983;SDS011;26714;51.332;12.406;2024-01-27T01:43:54;7.00;;;1.35;;
40983;SDS011;26714;51.332;12.406;2024-01-27T01:46:26;9.05;;;1.80;;
40983;SDS011;26714;51.332;12.406;2024-01-27T01:48:53;5.38;;;2.17;;
40983;SDS011;26714;51.332;12.406;2024-01-27T01:51:20;11.10;;;1.77;;
40983;SDS011;26714;51.332;12.406;2024-01-27T01:53:48;13.68;;;1.63;;
40983;SDS011;26714;51.332;12.406;2024-01-27T01:56:16;11.82;;;2.13;;
40983;SDS011;26714;51.332;12.406;2024-01-27T01:58:42;11.48;;;1.58;;
40983;SDS011;26714;51.332;12.406;2024-01-27T02:01:12;8.85;;;1.83;;
40983;SDS011;26714;51.332;12.406;2024-01-27T02:03:50;10.55;;;1.48;;
40983;SDS011;26714;51.332;12.406;2024-01-27T02:06:19;8.27;;;1.57;;
40983;SDS011;26714;51.332;12.406;2024-01-27T02:08:45;15.65;;;2.08;;
40983;SDS011;26714;51.332;12.406;2024-01-27T02:11:14;17.02;;;2.38;;
40983;SDS011;26714;51.332;12.406;2024-01-27T02:13:42;13.25;;;2.78;;
40983;SDS011;26714;51.332;12.406;2024-01-27T02:16:09;16.73;;;1.77;;
40983;SDS011;26714;51.332;12.406;2024-01-27T02:18:35;14.70;;;1.65;;
40983;SDS011;26714;51.332;12.406;2024-01-27T02:21:02;11.35;;;1.98;;
40983;SDS011;26714;51.332;12.406;2024-01-27T02:23:28;10.88;;;1.38;;
40983;SDS011;26714;51.332;12.406;2024-01-27T02:25:58;14.60;;;2.00;;
40983;SDS011;26714;51.332;12.406;2024-01-27T02:28:27;9.40;;;1.83;;
40983;SDS011;26714;51.332;12.406;2024-01-27T02:31:03;12.27;;;1.70;;
40983;SDS011;26714;51.332;12.406;2024-01-27T02:33:34;9.68;;;1.73;;
40983;SDS011;26714;51.332;12.406;2024-01-27T02:36:05;13.43;;;1.55;;
40983;SDS011;26714;51.332;12.406;2024-01-27T02:38:35;16.15;;;1.65;;
40983;SDS011;26714;51.332;12.406;2024-01-27T02:41:01;9.85;;;1.40;;
40983;SDS011;26714;51.332;12.406;2024-01-27T02:43:31;12.20;;;2.40;;
40983;SDS011;26714;51.332;12.406;2024-01-27T02:45:58;16.38;;;1.67;;
40983;SDS011;26714;51.332;12.406;2024-01-27T02:48:25;13.38;;;1.30;;
40983;SDS011;26714;51.332;12.406;2024-01-27T02:53:20;14.13;;;2.03;;
40983;SDS011;26714;51.332;12.406;2024-01-27T02:55:46;17.13;;;1.50;;
40983;SDS011;26714;51.332;12.406;2024-01-27T02:58:16;11.32;;;1.60;;
40983;SDS011;26714;51.332;12.406;2024-01-27T03:00:45;8.50;;;1.63;;
40983;SDS011;26714;51.332;12.406;2024-01-27T03:03:11;15.30;;;1.88;;
40983;SDS011;26714;51.332;12.406;2024-01-27T03:05:39;13.77;;;1.88;;
40983;SDS011;26714;51.332;12.406;2024-01-27T03:08:05;6.78;;;1.38;;
40983;SDS011;26714;51.332;12.406;2024-01-27T03:10:36;12.95;;;1.45;;
40983;SDS011;26714;51.332;12.406;2024-01-27T03:13:09;14.32;;;1.80;;
40983;SDS011;26714;51.332;12.406;2024-01-27T03:15:39;6.65;;;1.15;;
40983;SDS011;26714;51.332;12.406;2024-01-27T03:18:05;13.85;;;1.95;;
40983;SDS011;26714;51.332;12.406;2024-01-27T03:20:36;14.32;;;1.65;;
40983;SDS011;26714;51.332;12.406;2024-01-27T03:23:02;12.02;;;1.70;;
40983;SDS011;26714;51.332;12.406;2024-01-27T03:25:28;10.40;;;1.92;;
40983;SDS011;26714;51.332;12.406;2024-01-27T03:36:17;9.77;;;1.40;;
40983;SDS011;26714;51.332;12.406;2024-01-27T03:39:26;14.35;;;1.73;;
40983;SDS011;26714;51.332;12.406;2024-01-27T03:46:23;6.53;;;1.35;;
40983;SDS011;26714;51.332;12.406;2024-01-27T03:48:52;8.57;;;1.27;;
40983;SDS011;26714;51.332;12.406;2024-01-27T03:51:28;10.82;;;1.40;;
40983;SDS011;26714;51.332;12.406;2024-01-27T03:53:58;8.32;;;1.35;;
40983;SDS011;26714;51.332;12.406;2024-01-27T03:56:26;14.63;;;2.08;;
40983;SDS011;26714;51.332;12.406;2024-01-27T03:58:59;14.27;;;1.55;;
40983;SDS011;26714;51.332;12.406;2024-01-27T04:01:31;7.40;;;1.40;;
40983;SDS011;26714;51.332;12.406;2024-01-27T04:03:58;15.32;;;1.50;;
40983;SDS011;26714;51.332;12.406;2024-01-27T04:06:24;14.27;;;1.70;;
40983;SDS011;26714;51.332;12.406;2024-01-27T04:08:51;9.05;;;1.63;;
40983;SDS011;26714;51.332;12.406;2024-01-27T04:11:20;18.13;;;1.80;;
40983;SDS011;26714;51.332;12.406;2024-01-27T04:13:51;8.45;;;1.42;;
40983;SDS011;26714;51.332;12.406;2024-01-27T04:16:17;15.18;;;1.65;;
40983;SDS011;26714;51.332;12.406;2024-01-27T04:18:43;16.10;;;2.22;;
40983;SDS011;26714;51.332;12.406;2024-01-27T04:22:11;12.32;;;1.70;;
40983;SDS011;26714;51.332;12.406;2024-01-27T04:25:34;13.60;;;1.88;;
40983;SDS011;26714;51.332;12.406;2024-01-27T04:28:01;14.55;;;1.67;;
40983;SDS011;26714;51.332;12.406;2024-01-27T04:30:29;14.48;;;1.80;;
40983;SDS011;26714;51.332;12.406;2024-01-27T04:32:58;18.40;;;1.60;;
40983;SDS011;26714;51.332;12.406;2024-01-27T04:35:26;19.33;;;2.45;;
40983;SDS011;26714;51.332;12.406;2024-01-27T04:37:54;12.02;;;1.20;;
40983;SDS011;26714;51.332;12.406;2024-01-27T04:40:25;10.80;;;1.48;;
40983;SDS011;26714;51.332;12.406;2024-01-27T04:42:53;15.20;;;1.85;;
40983;SDS011;26714;51.332;12.406;2024-01-27T04:46:37;13.45;;;2.10;;
40983;SDS011;26714;51.332;12.406;2024-01-27T04:50:45;14.75;;;1.65;;
40983;SDS011;26714;51.332;12.406;2024-01-27T04:54:43;15.57;;;1.60;;
40983;SDS011;26714;51.332;12.406;2024-01-27T05:04:45;13.00;;;3.05;;
40983;SDS011;26714;51.332;12.406;2024-01-27T05:08:33;14.13;;;2.13;;
40983;SDS011;26714;51.332;12.406;2024-01-27T05:15:59;20.38;;;2.10;;
40983;SDS011;26714;51.332;12.406;2024-01-27T05:18:28;12.75;;;1.88;;
40983;SDS011;26714;51.332;12.406;2024-01-27T05:20:54;9.90;;;1.60;;
40983;SDS011;26714;51.332;12.406;2024-01-27T05:23:25;10.48;;;1.40;;
40983;SDS011;26714;51.332;12.406;2024-01-27T05:25:56;11.18;;;1.85;;
40983;SDS011;26714;51.332;12.406;2024-01-27T05:28:24;11.98;;;1.40;;
40983;SDS011;26714;51.332;12.406;2024-01-27T05:30:52;14.57;;;2.53;;
40983;SDS011;26714;51.332;12.406;2024-01-27T05:33:18;14.90;;;1.75;;
40983;SDS011;26714;51.332;12.406;2024-01-27T05:35:46;13.63;;;1.80;;
40983;SDS011;26714;51.332;12.406;2024-01-27T05:38:15;15.07;;;2.13;;
40983;SDS011;26714;51.332;12.406;2024-01-27T05:40:43;9.77;;;1.70;;
40983;SDS011;26714;51.332;12.406;2024-01-27T05:43:36;12.95;;;1.50;;
40983;SDS011;26714;51.332;12.406;2024-01-27T05:46:08;21.10;;;2.53;;
40983;SDS011;26714;51.332;12.406;2024-01-27T05:48:37;12.57;;;1.73;;
40983;SDS011;26714;51.332;12.406;2024-01-27T05:51:12;13.40;;;3.10;;
40983;SDS011;26714;51.332;12.406;2024-01-27T05:53:38;10.93;;;1.42;;
40983;SDS011;26714;51.332;12.406;2024-01-27T05:56:15;10.50;;;2.22;;
40983;SDS011;26714;51.332;12.406;2024-01-27T05:58:53;12.45;;;2.17;;
40983;SDS011;26714;51.332;12.406;2024-01-27T06:01:31;10.02;;;1.63;;
40983;SDS011;26714;51.332;12.406;2024-01-27T06:04:00;17.00;;;2.67;;
40983;SDS011;26714;51.332;12.406;2024-01-27T06:06:27;13.60;;;2.17;;
40983;SDS011;26714;51.332;12.406;2024-01-27T06:08:53;15.95;;;1.77;;
40983;SDS011;26714;51.332;12.406;2024-01-27T06:11:34;19.13;;;2.28;;
40983;SDS011;26714;51.332;12.406;2024-01-27T06:14:27;17.88;;;2.38;;
40983;SDS011;26714;51.332;12.406;2024-01-27T06:16:55;17.30;;;2.45;;
40983;SDS011;26714;51.332;12.406;2024-01-27T06:19:27;10.32;;;1.63;;
40983;SDS011;26714;51.332;12.406;2024-01-27T06:21:54;20.95;;;3.50;;
40983;SDS011;26714;51.332;12.406;2024-01-27T06:24:23;14.32;;;2.65;;
40983;SDS011;26714;51.332;12.406;2024-01-27T06:26:49;13.52;;;2.17;;
40983;SDS011;26714;51.332;12.406;2024-01-27T06:29:15;11.90;;;2.55;;
40983;SDS011;26714;51.332;12.406;2024-01-27T06:31:41;17.98;;;2.20;;
40983;SDS011;26714;51.332;12.406;2024-01-27T06:34:09;11.75;;;2.67;;
40983;SDS011;26714;51.332;12.406;2024-01-27T06:36:35;12.00;;;2.00;;
40983;SDS011;26714;51.332;12.406;2024-01-27T06:39:07;10.65;;;1.73;;
40983;SDS011;26714;51.332;12.406;2024-01-27T06:41:33;10.25;;;1.48;;
40983;SDS011;26714;51.332;12.406;2024-01-27T06:43:59;14.18;;;1.80;;
40983;SDS011;26714;51.332;12.406;2024-01-27T06:46:25;12.35;;;2.00;;
40983;SDS011;26714;51.332;12.406;2024-01-27T06:48:51;15.15;;;1.58;;
40983;SDS011;26714;51.332;12.406;2024-01-27T06:51:18;14.13;;;2.03;;
40983;SDS011;26714;51.332;12.406;2024-01-27T06:53:45;19.25;;;2.20;;
40983;SDS011;26714;51.332;12.406;2024-01-27T06:56:14;16.23;;;1.98;;
40983;SDS011;26714;51.332;12.406;2024-01-27T06:58:42;11.38;;;1.77;;
40983;SDS011;26714;51.332;12.406;2024-01-27T07:01:11;13.15;;;2.47;;
40983;SDS011;26714;51.332;12.406;2024-01-27T07:03:39;8.35;;;1.63;;
40983;SDS011;26714;51.332;12.406;2024-01-27T07:06:06;12.45;;;1.73;;
40983;SDS011;26714;51.332;12.406;2024-01-27T07:08:34;19.00;;;2.15;;
40983;SDS011;26714;51.332;12.406;2024-01-27T07:11:06;11.38;;;2.15;;
40983;SDS011;26714;51.332;12.406;2024-01-27T07:13:42;18.25;;;2.38;;
40983;SDS011;26714;51.332;12.406;2024-01-27T07:16:11;12.43;;;1.80;;
40983;SDS011;26714;51.332;12.406;2024-01-27T07:21:05;18.38;;;2.22;;
40983;SDS011;26714;51.332;12.406;2024-01-27T07:23:31;16.58;;;1.73;;
40983;SDS011;26714;51.332;12.406;2024-01-27T07:25:59;11.25;;;2.40;;
40983;SDS011;26714;51.332;12.406;2024-01-27T07:28:31;17.63;;;2.97;;
40983;SDS011;26714;51.332;12.406;2024-01-27T07:30:59;15.35;;;2.75;;
40983;SDS011;26714;51.332;12.406;2024-01-27T07:35:54;9.52;;;1.45;;
40983;SDS011;26714;51.332;12.406;2024-01-27T07:38:20;13.45;;;2.40;;
40983;SDS011;26714;51.332;12.406;2024-01-27T07:40:49;14.27;;;2.53;;
40983;SDS011;26714;51.332;12.406;2024-01-27T07:43:17;12.20;;;2.35;;
40983;SDS011;26714;51.332;12.406;2024-01-27T07:45:48;12.25;;;1.80;;
40983;SDS011;26714;51.332;12.406;2024-01-27T07:53:21;16.60;;;2.60;;
40983;SDS011;26714;51.332;12.406;2024-01-27T07:55:47;16.73;;;2.42;;
40983;SDS011;26714;51.332;12.406;2024-01-27T07:58:16;22.48;;;2.55;;
40983;SDS011;26714;51.332;12.406;2024-01-27T08:00:47;13.82;;;3.10;;
40983;SDS011;26714;51.332;12.406;2024-01-27T08:03:23;15.63;;;2.23;;
40983;SDS011;26714;51.332;12.406;2024-01-27T08:05:51;18.10;;;2.58;;
40983;SDS011;26714;51.332;12.406;2024-01-27T08:08:17;14.55;;;2.75;;
40983;SDS011;26714;51.332;12.406;2024-01-27T08:10:47;11.73;;;2.00;;
40983;SDS011;26714;51.332;12.406;2024-01-27T08:13:13;13.82;;;3.00;;
40983;SDS011;26714;51.332;12.406;2024-01-27T08:18:09;17.83;;;3.03;;
40983;SDS011;26714;51.332;12.406;2024-01-27T08:23:11;12.88;;;3.15;;
40983;SDS011;26714;51.332;12.406;2024-01-27T08:25:40;17.80;;;3.28;;
40983;SDS011;26714;51.332;12.406;2024-01-27T08:28:20;16.80;;;2.90;;
40983;SDS011;26714;51.332;12.406;2024-01-27T08:30:59;9.63;;;2.55;;
40983;SDS011;26714;51.332;12.406;2024-01-27T08:33:27;17.40;;;3.10;;
40983;SDS011;26714;51.332;12.406;2024-01-27T08:36:04;20.42;;;2.15;;
40983;SDS011;26714;51.332;12.406;2024-01-27T08:38:30;12.30;;;2.38;;
40983;SDS011;26714;51.332;12.406;2024-01-27T08:40:59;16.25;;;2.58;;
40983;SDS011;26714;51.332;12.406;2024-01-27T08:43:29;12.75;;;1.85;;
40983;SDS011;26714;51.332;12.406;2024-01-27T08:45:56;16.50;;;3.17;;
40983;SDS011;26714;51.332;12.406;2024-01-27T08:48:24;15.65;;;3.17;;
40983;SDS011;26714;51.332;12.406;2024-01-27T08:50:55;17.08;;;3.25;;
40983;SDS011;26714;51.332;12.406;2024-01-27T08:53:37;15.15;;;3.20;;
40983;SDS011;26714;51.332;12.406;2024-01-27T08:56:09;11.57;;;2.97;;
40983;SDS011;26714;51.332;12.406;2024-01-27T08:58:50;13.73;;;2.85;;
40983;SDS011;26714;51.332;12.406;2024-01-27T09:01:21;14.48;;;3.00;;
40983;SDS011;26714;51.332;12.406;2024-01-27T09:03:57;18.92;;;2.70;;
40983;SDS011;26714;51.332;12.406;2024-01-27T09:06:27;11.85;;;2.35;;
40983;SDS011;26714;51.332;12.406;2024-01-27T09:08:59;18.75;;;2.70;;
40983;SDS011;26714;51.332;12.406;2024-01-27T09:11:29;14.95;;;3.35;;
40983;SDS011;26714;51.332;12.406;2024-01-27T09:14:07;14.80;;;2.70;;
40983;SDS011;26714;51.332;12.406;2024-01-27T09:16:47;18.92;;;3.08;;
40983;SDS011;26714;51.332;12.406;2024-01-27T09:19:19;20.35;;;2.92;;
40983;SDS011;26714;51.332;12.406;2024-01-27T09:21:45;12.43;;;2.85;;
40983;SDS011;26714;51.332;12.406;2024-01-27T09:24:28;17.65;;;2.97;;
40983;SDS011;26714;51.332;12.406;2024-01-27T09:26:54;13.93;;;2.88;;
40983;SDS011;26714;51.332;12.406;2024-01-27T09:29:30;14.20;;;2.80;;
40983;SDS011;26714;51.332;12.406;2024-01-27T09:31:59;18.17;;;2.55;;
40983;SDS011;26714;51.332;12.406;2024-01-27T09:34:29;23.10;;;3.13;;
40983;SDS011;26714;51.332;12.406;2024-01-27T09:37:07;8.10;;;2.03;;
40983;SDS011;26714;51.332;12.406;2024-01-27T09:45:43;14.60;;;3.20;;
40983;SDS011;26714;51.332;12.406;2024-01-27T09:48:24;14.75;;;3.35;;
40983;SDS011;26714;51.332;12.406;2024-01-27T09:50:50;17.90;;;2.70;;
40983;SDS011;26714;51.332;12.406;2024-01-27T09:53:45;19.08;;;2.75;;
40983;SDS011;26714;51.332;12.406;2024-01-27T09:56:13;19.05;;;3.67;;
40983;SDS011;26714;51.332;12.406;2024-01-27T09:58:51;14.98;;;2.83;;
40983;SDS011;26714;51.332;12.406;2024-01-27T10:01:27;17.98;;;3.20;;
40983;SDS011;26714;51.332;12.406;2024-01-27T10:03:57;18.05;;;3.22;;
40983;SDS011;26714;51.332;12.406;2024-01-27T10:06:28;18.42;;;3.20;;
40983;SDS011;26714;51.332;12.406;2024-01-27T10:08:54;22.38;;;3.30;;
40983;SDS011;26714;51.332;12.406;2024-01-27T10:11:21;12.75;;;2.72;;
40983;SDS011;26714;51.332;12.406;2024-01-27T10:13:53;21.52;;;3.00;;
40983;SDS011;26714;51.332;12.406;2024-01-27T10:16:19;17.73;;;3.50;;
40983;SDS011;26714;51.332;12.406;2024-01-27T10:18:46;17.55;;;3.75;;
40983;SDS011;26714;51.332;12.406;2024-01-27T10:21:15;17.13;;;3.78;;
40983;SDS011;26714;51.332;12.406;2024-01-27T10:23:41;26.83;;;3.25;;
40983;SDS011;26714;51.332;12.406;2024-01-27T10:26:15;15.23;;;3.60;;
40983;SDS011;26714;51.332;12.406;2024-01-27T10:28:40;12.45;;;3.17;;
40983;SDS011;26714;51.332;12.406;2024-01-27T10:31:11;18.42;;;3.80;;
40983;SDS011;26714;51.332;12.406;2024-01-27T10:33:39;17.75;;;3.38;;
40983;SDS011;26714;51.332;12.406;2024-01-27T10:36:08;18.73;;;3.10;;
40983;SDS011;26714;51.332;12.406;2024-01-27T10:38:39;20.20;;;4.32;;
40983;SDS011;26714;51.332;12.406;2024-01-27T10:41:08;13.38;;;3.78;;
40983;SDS011;26714;51.332;12.406;2024-01-27T10:43:39;20.05;;;4.03;;
40983;SDS011;26714;51.332;12.406;2024-01-27T10:46:06;18.90;;;3.28;;
40983;SDS011;26714;51.332;12.406;2024-01-27T10:48:37;21.73;;;3.90;;
40983;SDS011;26714;51.332;12.406;2024-01-27T10:51:09;14.27;;;3.20;;
40983;SDS011;26714;51.332;12.406;2024-01-27T10:53:36;15.20;;;4.10;;
40983;SDS011;26714;51.332;12.406;2024-01-27T10:56:21;27.17;;;3.85;;
40983;SDS011;26714;51.332;12.406;2024-01-27T10:58:49;22.20;;;4.22;;
40983;SDS011;26714;51.332;12.406;2024-01-27T11:01:19;19.58;;;3.80;;
40983;SDS011;26714;51.332;12.406;2024-01-27T11:03:48;22.48;;;3.63;;
40983;SDS011;26714;51.332;12.406;2024-01-27T11:06:21;24.33;;;4.07;;
40983;SDS011;26714;51.332;12.406;2024-01-27T11:08:47;20.33;;;3.20;;
40983;SDS011;26714;51.332;12.406;2024-01-27T11:11:18;14.02;;;2.92;;
40983;SDS011;26714;51.332;12.406;2024-01-27T11:16:22;18.13;;;3.05;;
40983;SDS011;26714;51.332;12.406;2024-01-27T11:19:45;19.15;;;3.20;;
40983;SDS011;26714;51.332;12.406;2024-01-27T11:22:29;18.35;;;3.58;;
40983;SDS011;26714;51.332;12.406;2024-01-27T11:26:03;21.88;;;4.05;;
40983;SDS011;26714;51.332;12.406;2024-01-27T11:38:43;15.07;;;3.35;;
40983;SDS011;26714;51.332;12.406;2024-01-27T11:41:09;14.38;;;2.72;;
40983;SDS011;26714;51.332;12.406;2024-01-27T11:43:37;17.40;;;2.90;;
40983;SDS011;26714;51.332;12.406;2024-01-27T11:46:05;9.88;;;2.75;;
40983;SDS011;26714;51.332;12.406;2024-01-27T11:48:46;29.00;;;3.50;;
40983;SDS011;26714;51.332;12.406;2024-01-27T11:51:21;16.92;;;3.20;;
40983;SDS011;26714;51.332;12.406;2024-01-27T11:53:50;12.90;;;3.22;;
40983;SDS011;26714;51.332;12.406;2024-01-27T11:56:36;12.05;;;2.78;;
40983;SDS011;26714;51.332;12.406;2024-01-27T11:59:07;18.52;;;2.65;;
40983;SDS011;26714;51.332;12.406;2024-01-27T12:01:40;15.98;;;3.58;;
40983;SDS011;26714;51.332;12.406;2024-01-27T12:04:06;12.25;;;2.67;;
40983;SDS011;26714;51.332;12.406;2024-01-27T12:06:38;9.68;;;2.60;;
40983;SDS011;26714;51.332;12.406;2024-01-27T12:09:10;20.50;;;3.80;;
40983;SDS011;26714;51.332;12.406;2024-01-27T12:14:24;11.68;;;3.17;;
40983;SDS011;26714;51.332;12.406;2024-01-27T12:16:54;22.55;;;3.42;;
40983;SDS011;26714;51.332;12.406;2024-01-27T12:19:21;13.85;;;2.22;;
40983;SDS011;26714;51.332;12.406;2024-01-27T12:21:48;13.15;;;2.95;;
40983;SDS011;26714;51.332;12.406;2024-01-27T12:24:21;11.65;;;2.90;;
40983;SDS011;26714;51.332;12.406;2024-01-27T12:26:49;10.23;;;2.42;;
40983;SDS011;26714;51.332;12.406;2024-01-27T12:29:15;12.75;;;2.67;;
40983;SDS011;26714;51.332;12.406;2024-01-27T12:31:43;16.15;;;2.65;;
40983;SDS011;26714;51.332;12.406;2024-01-27T12:34:22;15.77;;;2.67;;
40983;SDS011;26714;51.332;12.406;2024-01-27T12:36:53;11.60;;;2.63;;
40983;SDS011;26714;51.332;12.406;2024-01-27T12:39:25;15.30;;;3.05;;
40983;SDS011;26714;51.332;12.406;2024-01-27T12:42:03;16.92;;;2.83;;
40983;SDS011;26714;51.332;12.406;2024-01-27T12:44:56;12.15;;;2.60;;
40983;SDS011;26714;51.332;12.406;2024-01-27T12:51:38;16.35;;;2.20;;
40983;SDS011;26714;51.332;12.406;2024-01-27T12:54:06;10.15;;;2.13;;
40983;SDS011;26714;51.332;12.406;2024-01-27T12:56:51;13.52;;;2.40;;
40983;SDS011;26714;51.332;12.406;2024-01-27T12:59:29;8.82;;;1.95;;
40983;SDS011;26714;51.332;12.406;2024-01-27T13:01:55;7.32;;;1.95;;
40983;SDS011;26714;51.332;12.406;2024-01-27T13:04:29;20.23;;;2.63;;
40983;SDS011;26714;51.332;12.406;2024-01-27T13:07:10;10.82;;;2.38;;
40983;SDS011;26714;51.332;12.406;2024-01-27T13:09:41;13.25;;;2.97;;
40983;SDS011;26714;51.332;12.406;2024-01-27T13:12:26;13.50;;;2.15;;
40983;SDS011;26714;51.332;12.406;2024-01-27T13:15:01;19.40;;;3.75;;
40983;SDS011;26714;51.332;12.406;2024-01-27T13:17:38;14.55;;;2.38;;
40983;SDS011;26714;51.332;12.406;2024-01-27T13:20:05;11.57;;;2.13;;
40983;SDS011;26714;51.332;12.406;2024-01-27T13:22:37;12.75;;;2.42;;
40983;SDS011;26714;51.332;12.406;2024-01-27T13:25:03;14.85;;;2.38;;
40983;SDS011;26714;51.332;12.406;2024-01-27T13:27:31;13.52;;;2.40;;
40983;SDS011;26714;51.332;12.406;2024-01-27T13:29:58;8.27;;;2.17;;
40983;SDS011;26714;51.332;12.406;2024-01-27T13:32:27;12.18;;;2.92;;
40983;SDS011;26714;51.332;12.406;2024-01-27T13:34:56;8.05;;;2.05;;
40983;SDS011;26714;51.332;12.406;2024-01-27T13:37:27;17.00;;;2.65;;
40983;SDS011;26714;51.332;12.406;2024-01-27T13:40:03;10.50;;;1.85;;
40983;SDS011;26714;51.332;12.406;2024-01-27T13:42:39;11.75;;;2.13;;
40983;SDS011;26714;51.332;12.406;2024-01-27T13:45:24;8.68;;;1.80;;
40983;SDS011;26714;51.332;12.406;2024-01-27T13:47:50;13.70;;;2.70;;
40983;SDS011;26714;51.332;12.406;2024-01-27T13:55:20;12.88;;;2.00;;
40983;SDS011;26714;51.332;12.406;2024-01-27T13:57:47;9.02;;;2.45;;
40983;SDS011;26714;51.332;12.406;2024-01-27T14:00:24;10.25;;;1.85;;
40983;SDS011;26714;51.332;12.406;2024-01-27T14:02:59;13.82;;;2.25;;
40983;SDS011;26714;51.332;12.406;2024-01-27T14:05:25;18.98;;;2.40;;
40983;SDS011;26714;51.332;12.406;2024-01-27T14:07:52;11.05;;;2.08;;
40983;SDS011;26714;51.332;12.406;2024-01-27T14:10:25;16.58;;;3.00;;
40983;SDS011;26714;51.332;12.406;2024-01-27T14:12:58;12.65;;;2.40;;
40983;SDS011;26714;51.332;12.406;2024-01-27T14:15:52;8.27;;;2.03;;
40983;SDS011;26714;51.332;12.406;2024-01-27T14:18:17;18.80;;;2.80;;
40983;SDS011;26714;51.332;12.406;2024-01-27T14:20:49;10.52;;;1.92;;
40983;SDS011;26714;51.332;12.406;2024-01-27T14:23:16;13.98;;;2.38;;
40983;SDS011;26714;51.332;12.406;2024-01-27T14:25:45;12.43;;;2.55;;
40983;SDS011;26714;51.332;12.406;2024-01-27T14:28:16;8.38;;;1.80;;
40983;SDS011;26714;51.332;12.406;2024-01-27T14:30:46;12.68;;;2.05;;
40983;SDS011;26714;51.332;12.406;2024-01-27T14:33:39;8.18;;;1.73;;
40983;SDS011;26714;51.332;12.406;2024-01-27T14:36:09;12.07;;;3.03;;
40983;SDS011;26714;51.332;12.406;2024-01-27T14:41:50;13.90;;;2.28;;
40983;SDS011;26714;51.332;12.406;2024-01-27T14:44:19;7.57;;;1.85;;
40983;SDS011;26714;51.332;12.406;2024-01-27T14:46:50;8.15;;;1.98;;
40983;SDS011;26714;51.332;12.406;2024-01-27T14:49:24;13.30;;;2.15;;
40983;SDS011;26714;51.332;12.406;2024-01-27T14:51:50;9.40;;;2.45;;
40983;SDS011;26714;51.332;12.406;2024-01-27T14:54:38;12.13;;;2.25;;
40983;SDS011;26714;51.332;12.406;2024-01-27T14:57:05;12.68;;;1.65;;
40983;SDS011;26714;51.332;12.406;2024-01-27T14:59:43;8.93;;;1.70;;
40983;SDS011;26714;51.332;12.406;2024-01-27T15:02:25;10.48;;;2.10;;
40983;SDS011;26714;51.332;12.406;2024-01-27T15:04:58;9.73;;;1.90;;
40983;SDS011;26714;51.332;12.406;2024-01-27T15:07:29;14.52;;;2.28;;
40983;SDS011;26714;51.332;12.406;2024-01-27T15:10:09;11.38;;;1.80;;
40983;SDS011;26714;51.332;12.406;2024-01-27T15:12:37;9.75;;;1.55;;
40983;SDS011;26714;51.332;12.406;2024-01-27T15:15:16;10.70;;;1.77;;
40983;SDS011;26714;51.332;12.406;2024-01-27T15:17:45;12.68;;;2.17;;
40983;SDS011;26714;51.332;12.406;2024-01-27T15:20:58;10.48;;;2.85;;
40983;SDS011;26714;51.332;12.406;2024-01-27T15:23:32;6.45;;;1.70;;
40983;SDS011;26714;51.332;12.406;2024-01-27T15:25:59;10.38;;;2.13;;
40983;SDS011;26714;51.332;12.406;2024-01-27T15:28:31;17.80;;;1.92;;
40983;SDS011;26714;51.332;12.406;2024-01-27T15:31:02;12.55;;;2.53;;
40983;SDS011;26714;51.332;12.406;2024-01-27T15:33:35;14.00;;;2.20;;
40983;SDS011;26714;51.332;12.406;2024-01-27T15:36:03;11.38;;;2.70;;
40983;SDS011;26714;51.332;12.406;2024-01-27T15:38:31;9.93;;;2.08;;
40983;SDS011;26714;51.332;12.406;2024-01-27T15:40:59;11.98;;;2.42;;
40983;SDS011;26714;51.332;12.406;2024-01-27T15:43:53;10.85;;;1.98;;
40983;SDS011;26714;51.332;12.406;2024-01-27T15:46:25;10.88;;;1.95;;
40983;SDS011;26714;51.332;12.406;2024-01-27T15:48:51;10.80;;;2.15;;
40983;SDS011;26714;51.332;12.406;2024-01-27T15:53:50;12.52;;;1.83;;
40983;SDS011;26714;51.332;12.406;2024-01-27T15:56:18;11.73;;;1.93;;
40983;SDS011;26714;51.332;12.406;2024-01-27T15:58:48;11.35;;;2.33;;
40983;SDS011;26714;51.332;12.406;2024-01-27T16:01:14;8.98;;;1.70;;
40983;SDS011;26714;51.332;12.406;2024-01-27T16:03:50;14.45;;;1.92;;
40983;SDS011;26714;51.332;12.406;2024-01-27T16:06:22;10.52;;;1.85;;
40983;SDS011;26714;51.332;12.406;2024-01-27T16:09:10;10.60;;;2.40;;
40983;SDS011;26714;51.332;12.406;2024-01-27T16:11:40;15.57;;;2.85;;
40983;SDS011;26714;51.332;12.406;2024-01-27T16:14:17;6.53;;;1.92;;
40983;SDS011;26714;51.332;12.406;2024-01-27T16:17:12;11.02;;;2.05;;
40983;SDS011;26714;51.332;12.406;2024-01-27T16:19:41;11.90;;;2.42;;
40983;SDS011;26714;51.332;12.406;2024-01-27T16:22:08;9.95;;;2.40;;
40983;SDS011;26714;51.332;12.406;2024-01-27T16:24:33;10.15;;;2.20;;